»·PEaware :: CAX948 KBJC-KLBF

CAX948 :: KBJC-KLBF

FLIGHT INFORMATION

Flight Status: Arrived
Operator:
California Airlines (website)
More flights by this operator :: More flights under this callsign
Pilot: Tony D. (5369)
Aircraft: CIRRUS VISIONJET
(SF50)
More flights by this aircraft type
Origin: KBJC Jeffco
United States
Destination: KLBF North Platte Regl-Bird
United States
More flights between these airports :: More routes between these airports
Route: +YOKES SNY V6 LBF
File this flight plan on PilotEdge
Remarks:
Altitude:
(Current/Filed)
23,000ft
Speed:
(Current/Filed)
250kts
Departed: 01-Dec-18 08:38 AM
Arrived: 01-Dec-18 09:48 AM
Distance/Time
Traveled:
215nm/1:09
Distance/Time
To Go:
Arrived

Flight Plot

Page will automatically refresh every two minutes.

Flight plan parsing failed; only flown route is shown


Map Options




Map Legend


Flown Route
Filed Route
Departure Airport
Arrival Airport
Navaid (VOR, NDB)
Fix

Horizontal Profiles

Position Reports

Time Latitude Longitude Heading Altitude Ground
Speed
01-Dec-18 08:19 39.907852 -105.109903 302 5595ft 0kts
01-Dec-18 08:20 39.907852 -105.109903 302 5595ft 0kts
01-Dec-18 08:21 39.907852 -105.109903 302 5595ft 0kts
01-Dec-18 08:22 39.907852 -105.109903 302 5595ft 0kts
01-Dec-18 08:23 39.907852 -105.109903 302 5595ft 0kts
01-Dec-18 08:24 39.907852 -105.109903 302 5595ft 0kts
01-Dec-18 08:25 39.907852 -105.109903 302 5595ft 0kts
01-Dec-18 08:26 39.907852 -105.109903 302 5595ft 0kts
01-Dec-18 08:27 39.907852 -105.109903 302 5595ft 0kts
01-Dec-18 08:28 39.907852 -105.109903 302 5595ft 0kts
01-Dec-18 08:29 39.907852 -105.109903 302 5595ft 0kts
01-Dec-18 08:30 39.907852 -105.109903 302 5595ft 0kts
01-Dec-18 08:31 39.907852 -105.109903 302 5595ft 0kts
01-Dec-18 08:32 39.907852 -105.109903 302 5595ft 0kts
01-Dec-18 08:33 39.907852 -105.109903 302 5595ft 0kts
01-Dec-18 08:34 39.907852 -105.109903 302 5595ft 0kts
01-Dec-18 08:35 39.907852 -105.109903 302 5595ft 0kts
01-Dec-18 08:36 39.907852 -105.109903 302 5595ft 0kts
01-Dec-18 08:37 39.907132 -105.109961 194 5592ft 5kts
01-Dec-18 08:38 39.905134 -105.106493 122 5575ft 16kts
01-Dec-18 08:39 39.902800 -105.102086 124 5551ft 11kts
01-Dec-18 08:40 39.902116 -105.101370 207 5546ft 0kts
01-Dec-18 08:41 39.902051 -105.103142 306 5552ft 41kts
01-Dec-18 08:42 39.924221 -105.141704 333 6293ft 205kts
01-Dec-18 08:43 39.969525 -105.110759 38 7380ft 179kts
01-Dec-18 08:44 39.999912 -105.057585 56 8723ft 209kts
01-Dec-18 08:45 40.030054 -104.990418 53 9929ft 222kts
01-Dec-18 08:46 40.061599 -104.920225 51 11116ft 226kts
01-Dec-18 08:47 40.093276 -104.849822 48 12281ft 224kts
01-Dec-18 08:48 40.124927 -104.779837 49 13480ft 233kts
01-Dec-18 08:49 40.158778 -104.704333 50 14719ft 247kts
01-Dec-18 08:50 40.193840 -104.625750 51 15940ft 256kts
01-Dec-18 08:51 40.231115 -104.542105 53 17187ft 275kts
01-Dec-18 08:52 40.270222 -104.453974 54 18415ft 285kts
01-Dec-18 08:53 40.332484 -104.399481 19 19644ft 272kts
01-Dec-18 08:54 40.400208 -104.354751 20 20862ft 275kts
01-Dec-18 08:55 40.468974 -104.309183 22 22044ft 283kts
01-Dec-18 08:56 40.540455 -104.261650 23 22692ft 296kts
01-Dec-18 08:57 40.597361 -104.188980 60 22683ft 297kts
01-Dec-18 08:58 40.637600 -104.093538 60 22680ft 299kts
01-Dec-18 08:59 40.677660 -103.998238 60 22678ft 299kts
01-Dec-18 09:00 40.718008 -103.902000 60 22681ft 300kts
01-Dec-18 09:01 40.758077 -103.806100 60 22679ft 300kts
01-Dec-18 09:02 40.798037 -103.710069 60 22680ft 300kts
01-Dec-18 09:03 40.838175 -103.613353 60 22671ft 301kts
01-Dec-18 09:04 40.878190 -103.516666 60 22671ft 301kts
01-Dec-18 09:05 40.918182 -103.419696 60 22674ft 301kts
01-Dec-18 09:06 40.958082 -103.322641 61 22668ft 301kts
01-Dec-18 09:07 40.997982 -103.225230 61 22666ft 301kts
01-Dec-18 09:08 41.036576 -103.130826 61 22649ft 273kts
01-Dec-18 09:09 41.070540 -103.047574 63 22659ft 244kts
01-Dec-18 09:10 41.096041 -102.968359 92 22686ft 230kts
01-Dec-18 09:11 41.095390 -102.884133 90 22649ft 227kts
01-Dec-18 09:12 41.094275 -102.800404 90 22662ft 226kts
01-Dec-18 09:13 41.093232 -102.717125 89 22667ft 226kts
01-Dec-18 09:14 41.092102 -102.634147 90 22662ft 225kts
01-Dec-18 09:15 41.087462 -102.551271 94 22643ft 226kts
01-Dec-18 09:16 41.081698 -102.468617 93 22635ft 225kts
01-Dec-18 09:17 41.075897 -102.385759 92 22625ft 226kts
01-Dec-18 09:18 41.069893 -102.302746 93 22600ft 227kts
01-Dec-18 09:19 41.063991 -102.219094 91 22588ft 228kts
01-Dec-18 09:20 41.057998 -102.135531 93 22583ft 229kts
01-Dec-18 09:21 41.051820 -102.051427 91 22587ft 229kts
01-Dec-18 09:22 41.045477 -101.967170 92 22035ft 234kts
01-Dec-18 09:23 41.039018 -101.881934 90 21008ft 221kts
01-Dec-18 09:24 41.033014 -101.803088 89 19996ft 219kts
01-Dec-18 09:25 41.026886 -101.721534 89 18975ft 227kts
01-Dec-18 09:26 41.020367 -101.637884 88 17940ft 227kts
01-Dec-18 09:27 41.014019 -101.555858 86 16888ft 223kts
01-Dec-18 09:28 41.007663 -101.474255 86 15847ft 224kts
01-Dec-18 09:29 41.001153 -101.391896 85 14804ft 227kts
01-Dec-18 09:30 40.994455 -101.307944 86 13769ft 232kts
01-Dec-18 09:31 40.987549 -101.222180 86 12734ft 235kts
01-Dec-18 09:32 40.980539 -101.136157 85 11692ft 233kts
01-Dec-18 09:33 40.973607 -101.051638 86 10657ft 230kts
01-Dec-18 09:34 40.966732 -100.968357 87 9630ft 226kts
01-Dec-18 09:35 40.960574 -100.889685 88 8577ft 197kts
01-Dec-18 09:36 40.954614 -100.821399 87 7530ft 182kts
01-Dec-18 09:37 40.948849 -100.755755 89 6531ft 177kts
01-Dec-18 09:38 40.943329 -100.692827 88 5496ft 169kts
01-Dec-18 09:39 40.913247 -100.660783 201 4911ft 174kts
01-Dec-18 09:40 40.866775 -100.667722 189 4917ft 170kts
01-Dec-18 09:41 40.836946 -100.704402 293 4919ft 137kts
01-Dec-18 09:42 40.859541 -100.695058 58 4928ft 137kts
01-Dec-18 09:43 40.891028 -100.694712 352 4910ft 136kts
01-Dec-18 09:44 40.925460 -100.697974 1 4894ft 110kts
01-Dec-18 09:45 40.955485 -100.697254 3 4927ft 108kts
01-Dec-18 09:46 40.987290 -100.696574 3 4630ft 122kts
01-Dec-18 09:47 41.021944 -100.695701 5 4236ft 122kts
01-Dec-18 09:48 41.056288 -100.694866 6 4042ft 117kts
01-Dec-18 09:49 41.085921 -100.693960 7 3472ft 99kts
01-Dec-18 09:50 41.113134 -100.693459 6 2964ft 97kts
01-Dec-18 09:51 41.130636 -100.692846 2 2777ft 11kts
01-Dec-18 09:52 41.131236 -100.695447 322 2777ft 6kts
01-Dec-18 09:53 41.131893 -100.695797 267 2777ft 0kts
01-Dec-18 09:54 41.131893 -100.695797 267 2777ft 0kts

Navigation Log

Ident Type
Flight plan parsing failed, navigation log unavailable